Time;durP1;ratioP1;P1;durP2;ratioP2;P2;SDS_P1;SDS_P2;PMS_P1;PMS_P2;Temp;Humidity;BMP_temperature;BMP_pressure;BME280_temperature;BME280_humidity;BME280_pressure;Samples;Min_cycle;Max_cycle;Signal;HPM_P1;HPM_P2
2023/04/10 00:01:50;;;;;;;9.77;8.63;;;4.20;99.90;4.10;101497.00;;;;5024036;27;110775;-64
2023/04/10 00:04:15;;;;;;;15.37;10.10;;;4.30;99.90;4.00;101493.00;;;;5025891;27;83523;-64
2023/04/10 00:06:41;;;;;;;17.07;10.03;;;4.30;99.90;4.00;101494.00;;;;5025764;27;93521;-64
2023/04/10 00:09:08;;;;;;;15.70;10.77;;;4.30;99.90;4.00;101498.00;;;;5028474;27;84079;-64
2023/04/10 00:11:34;;;;;;;17.50;10.33;;;4.20;99.90;3.90;101491.00;;;;5023972;27;104991;-64
2023/04/10 00:14:00;;;;;;;17.37;11.40;;;4.20;99.90;3.80;101494.00;;;;5023312;27;112154;-65
2023/04/10 00:16:25;;;;;;;16.20;10.03;;;4.10;99.90;3.80;101488.00;;;;5025598;27;91841;-65
2023/04/10 00:19:00;;;;;;;10.83;8.63;;;4.00;99.90;3.70;101485.00;;;;5015787;27;95515;-64
2023/04/10 00:21:26;;;;;;;14.43;9.70;;;4.00;99.90;3.70;101484.00;;;;5025375;27;83040;-64
2023/04/10 00:23:51;;;;;;;14.40;10.17;;;4.00;99.90;3.60;101495.00;;;;5030118;27;83834;-64
2023/04/10 00:26:17;;;;;;;15.00;9.73;;;3.90;99.90;3.60;101478.00;;;;5028783;27;83545;-64
2023/04/10 00:28:43;;;;;;;12.17;9.10;;;4.40;99.90;3.50;101484.00;;;;5031607;27;83727;-64
2023/04/10 00:31:08;;;;;;;14.97;9.37;;;3.90;99.90;3.50;101485.00;;;;5028491;27;112572;-64
2023/04/10 00:33:34;;;;;;;11.37;8.93;;;3.80;99.90;3.50;101480.00;;;;5026023;27;110450;-64
2023/04/10 00:36:00;;;;;;;15.27;9.13;;;3.70;99.90;3.40;101481.00;;;;5028097;27;82677;-64
2023/04/10 00:38:25;;;;;;;9.50;8.67;;;3.70;99.90;3.40;101485.00;;;;5031566;27;82821;-64
2023/04/10 00:40:51;;;;;;;18.03;9.63;;;3.50;99.90;3.40;101482.00;;;;5024827;27;112466;-65
2023/04/10 00:43:19;;;;;;;13.83;8.23;;;3.70;99.90;3.30;101479.00;;;;5025979;27;110959;-65
2023/04/10 00:45:44;;;;;;;16.97;9.43;;;3.60;99.90;3.30;101467.00;;;;5028174;27;82720;-65
2023/04/10 00:48:11;;;;;;;13.00;9.33;;;3.60;99.90;3.20;101474.00;;;;5028953;27;83111;-65
2023/04/10 00:50:36;;;;;;;11.03;7.87;;;3.40;99.90;3.10;101481.00;;;;5011642;27;87331;-64
2023/04/10 00:53:02;;;;;;;9.77;7.83;;;3.50;99.90;3.10;101469.00;;;;5027567;27;110406;-64
2023/04/10 00:55:28;;;;;;;13.57;8.73;;;3.10;99.90;3.10;101476.00;;;;5027146;27;108456;-65
2023/04/10 00:57:55;;;;;;;10.97;8.07;;;3.40;99.90;3.10;101467.00;;;;5027300;27;111566;-64
2023/04/10 01:00:21;;;;;;;15.07;9.00;;;3.40;99.90;3.00;101469.00;;;;5028335;27;102966;-65
2023/04/10 01:02:46;;;;;;;12.20;9.50;;;3.40;99.90;3.00;101467.00;;;;5031489;27;109610;-64
2023/04/10 01:05:12;;;;;;;12.20;9.20;;;3.30;99.90;3.00;101471.00;;;;5033935;27;82924;-64
2023/04/10 01:07:45;;;;;;;14.17;9.70;;;3.20;99.90;2.90;101469.00;;;;5032380;27;83659;-65
2023/04/10 01:10:35;;;;;;;12.03;9.67;;;3.20;99.90;2.90;101478.00;;;;5011393;27;103125;-65
2023/04/10 01:13:21;;;;;;;15.23;10.20;;;3.20;99.90;2.90;101468.00;;;;5030977;27;82871;-64
2023/04/10 01:15:57;;;;;;;10.97;8.33;;;3.20;99.90;2.80;101470.00;;;;5017270;27;83506;-65
2023/04/10 01:18:35;;;;;;;15.60;8.57;;;3.20;99.90;2.80;101470.00;;;;5013546;27;83101;-65
2023/04/10 01:21:04;;;;;;;15.03;10.37;;;3.10;99.90;2.80;101468.00;;;;5013433;27;104217;-64
2023/04/10 01:24:17;;;;;;;11.90;8.73;;;3.10;99.90;2.70;101464.00;;;;5028658;27;83604;-64
2023/04/10 01:27:12;;;;;;;10.00;8.50;;;3.00;99.90;2.60;101465.00;;;;5014934;27;92138;-65
2023/04/10 01:29:45;;;;;;;13.97;10.33;;;3.00;99.90;2.70;101467.00;;;;5031678;27;82913;-64
2023/04/10 01:32:16;;;;;;;13.57;8.90;;;3.00;99.90;2.60;101465.00;;;;5014617;27;84562;-65
2023/04/10 01:34:52;;;;;;;8.77;7.87;;;3.00;99.90;2.60;101466.00;;;;5011943;27;83464;-65
2023/04/10 01:37:24;;;;;;;9.17;7.57;;;2.90;99.90;2.60;101470.00;;;;5015764;27;83039;-65
2023/04/10 01:40:00;;;;;;;12.53;8.60;;;2.80;99.90;2.50;101468.00;;;;5034573;27;82971;-64
2023/04/10 01:42:31;;;;;;;9.57;7.57;;;2.80;99.90;2.50;101459.00;;;;5013972;27;82933;-65
2023/04/10 01:44:59;;;;;;;13.30;8.40;;;3.00;99.90;2.40;101465.00;;;;5016614;27;103013;-64
2023/04/10 01:47:26;;;;;;;9.93;8.30;;;2.70;99.90;2.30;101459.00;;;;5017041;27;83271;-64
2023/04/10 01:49:53;;;;;;;11.23;8.70;;;3.30;99.90;2.30;101461.00;;;;5030380;27;84430;-65
2023/04/10 01:52:21;;;;;;;14.17;9.57;;;2.60;99.90;2.20;101460.00;;;;5029716;27;112676;-64
2023/04/10 01:54:48;;;;;;;8.93;8.13;;;2.50;99.90;2.10;101454.00;;;;5015705;27;107372;-64
2023/04/10 01:57:15;;;;;;;11.90;8.60;;;2.40;99.90;2.10;101452.00;;;;5014992;27;82902;-64
2023/04/10 01:59:41;;;;;;;12.43;8.97;;;2.40;99.90;2.00;101464.00;;;;5011260;27;82901;-65
2023/04/10 02:02:10;;;;;;;13.57;8.40;;;3.10;99.90;2.00;101452.00;;;;5030905;27;83519;-64
2023/04/10 02:04:36;;;;;;;14.67;8.77;;;2.30;99.90;1.90;101463.00;;;;5032656;27;82933;-64
2023/04/10 02:07:06;;;;;;;10.23;7.70;;;2.30;99.90;1.90;101449.00;;;;5029791;27;84045;-64
2023/04/10 02:10:11;;;;;;;12.73;8.87;;;2.30;99.90;1.90;101455.00;;;;5011254;27;97534;-64
2023/04/10 02:12:54;;;;;;;9.07;7.67;;;2.30;99.90;1.90;101455.00;;;;5012752;27;99633;-64
2023/04/10 02:15:23;;;;;;;12.23;7.33;;;2.20;99.90;1.90;101452.00;;;;5029209;27;83461;-65
2023/04/10 02:17:50;;;;;;;10.73;8.40;;;2.20;99.90;1.90;101448.00;;;;5030845;27;83132;-64
2023/04/10 02:20:20;;;;;;;12.13;7.53;;;2.10;99.90;1.80;101446.00;;;;5012839;27;100710;-65
2023/04/10 02:22:46;;;;;;;8.70;7.57;;;2.10;99.90;1.80;101450.00;;;;5029208;27;82857;-64
2023/04/10 02:25:12;;;;;;;10.40;7.67;;;2.10;99.90;1.80;101445.00;;;;5006501;27;98764;-65
2023/04/10 02:27:39;;;;;;;11.53;8.20;;;2.10;99.90;1.70;101438.00;;;;5001408;27;82819;-65
2023/04/10 02:30:05;;;;;;;10.80;6.97;;;2.10;99.90;1.70;101444.00;;;;5014851;27;82993;-64
2023/04/10 02:32:32;;;;;;;10.43;8.47;;;2.00;99.90;1.70;101440.00;;;;5031825;27;82825;-64
2023/04/10 02:34:58;;;;;;;10.10;7.10;;;2.00;99.90;1.70;101435.00;;;;5032397;27;82699;-65
2023/04/10 02:37:24;;;;;;;7.73;6.33;;;2.00;99.90;1.60;101443.00;;;;5028555;27;82538;-64
2023/04/10 02:39:51;;;;;;;12.47;8.50;;;1.90;99.90;1.60;101445.00;;;;5029068;27;85775;-65
2023/04/10 02:42:16;;;;;;;8.53;7.17;;;1.90;99.90;1.60;101440.00;;;;5030151;27;84816;-65
2023/04/10 02:44:42;;;;;;;10.43;7.77;;;1.90;99.90;1.60;101443.00;;;;5035063;27;93065;-64
2023/04/10 02:47:08;;;;;;;11.63;8.70;;;1.90;99.90;1.60;101439.00;;;;5032980;27;110026;-64
2023/04/10 02:49:34;;;;;;;11.97;7.73;;;1.90;99.90;1.60;101444.00;;;;5028131;27;99285;-65
2023/04/10 02:52:00;;;;;;;12.23;7.33;;;1.90;99.90;1.50;101444.00;;;;5030825;27;95605;-65
2023/04/10 02:54:26;;;;;;;10.67;8.50;;;2.00;99.90;1.50;101443.00;;;;5030882;27;82882;-65
2023/04/10 02:56:51;;;;;;;12.83;7.23;;;2.50;99.90;1.50;101443.00;;;;5032381;27;99707;-65
2023/04/10 02:59:18;;;;;;;10.77;8.33;;;1.80;99.90;1.40;101448.00;;;;5026335;27;111607;-64
2023/04/10 03:01:45;;;;;;;11.17;8.27;;;1.70;99.90;1.30;101432.00;;;;5031812;27;102834;-65
2023/04/10 03:04:11;;;;;;;7.70;6.17;;;1.70;99.90;1.30;101444.00;;;;5027772;27;86022;-65
2023/04/10 03:06:37;;;;;;;9.90;7.10;;;1.60;99.90;1.20;101438.00;;;;5028749;27;90462;-64
2023/04/10 03:09:02;;;;;;;8.47;7.50;;;1.60;99.90;1.20;101439.00;;;;5027447;27;112097;-64
2023/04/10 03:11:29;;;;;;;13.70;8.67;;;2.30;99.90;1.20;101448.00;;;;5028897;27;112592;-64
2023/04/10 03:13:57;;;;;;;10.23;8.57;;;1.50;99.90;1.20;101445.00;;;;5031102;27;83222;-64
2023/04/10 03:16:23;;;;;;;10.90;7.27;;;1.50;99.90;1.20;101454.00;;;;5028195;27;83116;-64
2023/04/10 03:18:48;;;;;;;13.03;8.67;;;1.50;99.90;1.10;101445.00;;;;5027734;27;83671;-64
2023/04/10 03:21:14;;;;;;;12.07;7.40;;;1.50;99.90;1.10;101440.00;;;;5028617;27;95128;-64
2023/04/10 03:23:40;;;;;;;12.53;8.70;;;1.40;99.90;1.10;101436.00;;;;5026308;27;83101;-65
2023/04/10 03:26:07;;;;;;;15.20;9.07;;;2.10;99.90;1.10;101438.00;;;;5028525;27;82597;-64
2023/04/10 03:28:35;;;;;;;10.50;7.37;;;1.40;99.90;1.10;101436.00;;;;5026425;27;84598;-65
2023/04/10 03:31:02;;;;;;;25.20;12.93;;;1.40;99.90;1.00;101444.00;;;;5027832;27;83635;-64
2023/04/10 03:33:28;;;;;;;8.43;6.70;;;1.30;99.90;1.00;101425.00;;;;5029580;27;83375;-64
2023/04/10 03:35:53;;;;;;;15.20;9.47;;;2.20;99.90;1.00;101427.00;;;;5028466;27;82902;-64
2023/04/10 03:38:19;;;;;;;13.27;8.87;;;1.40;99.90;1.00;101432.00;;;;5024501;27;113447;-64
2023/04/10 03:40:45;;;;;;;20.90;11.97;;;1.30;99.90;0.90;101428.00;;;;5028951;27;82950;-64
2023/04/10 03:43:11;;;;;;;11.40;7.33;;;1.20;99.90;0.90;101428.00;;;;5025012;27;110424;-64
2023/04/10 03:45:36;;;;;;;8.47;7.57;;;1.20;99.90;0.80;101435.00;;;;5026205;27;109146;-64
2023/04/10 03:48:02;;;;;;;10.73;7.70;;;1.20;99.90;0.80;101430.00;;;;5027159;27;82969;-63
2023/04/10 03:50:28;;;;;;;11.13;7.67;;;1.10;99.90;0.70;101425.00;;;;5030292;27;82848;-65
2023/04/10 03:52:54;;;;;;;14.23;9.80;;;1.10;99.90;0.70;101426.00;;;;5027223;27;90690;-66
2023/04/10 03:55:20;;;;;;;18.07;10.63;;;1.10;99.90;0.70;101434.00;;;;5031010;27;82801;-66
2023/04/10 03:57:46;;;;;;;11.97;7.37;;;1.10;99.90;0.80;101437.00;;;;5025085;27;83704;-66
2023/04/10 04:00:13;;;;;;;8.23;6.50;;;1.10;99.90;0.80;101439.00;;;;5029463;27;106805;-66
2023/04/10 04:02:39;;;;;;;12.30;9.50;;;1.10;99.90;0.80;101441.00;;;;5011640;27;82790;-66
2023/04/10 04:05:05;;;;;;;11.57;8.73;;;1.20;99.90;0.80;101436.00;;;;5027797;27;108466;-65
2023/04/10 04:07:31;;;;;;;11.73;8.37;;;1.20;99.90;0.80;101453.00;;;;5024982;27;83763;-65
2023/04/10 04:09:56;;;;;;;13.07;9.93;;;1.20;99.90;0.80;101458.00;;;;5030863;27;112786;-65
2023/04/10 04:12:22;;;;;;;13.30;9.07;;;1.20;99.90;0.80;101449.00;;;;5026755;27;110481;-66
2023/04/10 04:14:48;;;;;;;14.13;10.07;;;1.20;99.90;0.80;101451.00;;;;5030970;27;108877;-65
2023/04/10 04:17:13;;;;;;;17.77;8.67;;;1.20;99.90;0.90;101445.00;;;;5028419;27;114610;-66
2023/04/10 04:19:39;;;;;;;17.40;9.93;;;1.60;99.90;0.90;101451.00;;;;5028805;27;113119;-65
2023/04/10 04:22:05;;;;;;;12.63;8.80;;;1.20;99.90;1.00;101452.00;;;;5027767;27;82700;-65
2023/04/10 04:24:30;;;;;;;16.13;9.30;;;1.30;99.90;1.00;101453.00;;;;5030011;27;86674;-65
2023/04/10 04:26:56;;;;;;;10.83;7.87;;;1.30;99.90;1.00;101459.00;;;;5026678;27;113171;-65
2023/04/10 04:29:22;;;;;;;16.53;10.40;;;1.30;99.90;1.00;101467.00;;;;5024230;27;107351;-65
2023/04/10 04:31:47;;;;;;;20.87;11.87;;;1.40;99.90;1.00;101460.00;;;;5027869;27;108063;-66
2023/04/10 04:34:13;;;;;;;13.57;9.23;;;1.30;99.90;1.00;101470.00;;;;5026326;27;83942;-64
2023/04/10 04:36:39;;;;;;;19.83;12.37;;;1.30;99.90;1.00;101465.00;;;;5031553;27;111910;-64
2023/04/10 04:39:05;;;;;;;10.73;8.03;;;1.30;99.90;1.00;101462.00;;;;5030412;27;84622;-64
2023/04/10 04:41:31;;;;;;;15.40;9.20;;;1.30;99.90;1.00;101463.00;;;;5025938;27;112851;-64
2023/04/10 04:43:58;;;;;;;19.83;12.97;;;1.30;99.90;0.90;101468.00;;;;5026634;27;82816;-64
2023/04/10 04:46:24;;;;;;;13.03;8.60;;;1.30;99.90;1.00;101471.00;;;;5026782;27;91799;-63
2023/04/10 04:48:50;;;;;;;19.43;10.00;;;1.30;99.90;1.00;101461.00;;;;5027982;27;83546;-66
2023/04/10 04:51:15;;;;;;;13.30;9.17;;;1.40;99.90;1.10;101466.00;;;;5027440;27;101448;-64
2023/04/10 04:53:41;;;;;;;20.73;11.93;;;1.40;99.90;1.10;101466.00;;;;5027399;27;109320;-64
2023/04/10 04:56:07;;;;;;;22.20;13.93;;;1.40;99.90;1.10;101470.00;;;;5027843;27;105227;-64
2023/04/10 04:58:33;;;;;;;16.37;10.77;;;1.40;99.90;1.20;101465.00;;;;5023074;27;102490;-63
2023/04/10 05:00:59;;;;;;;13.13;9.97;;;1.50;99.90;1.30;101469.00;;;;5023183;27;84304;-64
2023/04/10 05:03:27;;;;;;;16.30;10.10;;;1.60;99.90;1.30;101472.00;;;;5020270;27;83289;-64
2023/04/10 05:05:53;;;;;;;19.47;11.63;;;1.60;99.90;1.40;101466.00;;;;5022687;27;84549;-64
2023/04/10 05:08:19;;;;;;;17.07;10.40;;;1.60;99.90;1.40;101469.00;;;;5018611;27;104785;-64
2023/04/10 05:10:45;;;;;;;19.10;12.63;;;1.70;99.90;1.50;101468.00;;;;5019791;27;83680;-65
2023/04/10 05:13:11;;;;;;;13.93;8.67;;;1.80;99.90;1.50;101480.00;;;;5023502;27;107993;-65
2023/04/10 05:15:37;;;;;;;12.07;9.67;;;1.80;99.90;1.60;101477.00;;;;5024660;27;96160;-64
2023/04/10 05:18:02;;;;;;;15.10;10.77;;;1.90;99.90;1.60;101481.00;;;;5023108;27;82678;-64
2023/04/10 05:20:28;;;;;;;22.60;12.43;;;2.60;99.90;1.70;101492.00;;;;5022451;27;109782;-64
2023/04/10 05:22:54;;;;;;;17.67;9.67;;;2.00;99.90;1.80;101481.00;;;;5022041;27;109852;-64
2023/04/10 05:25:19;;;;;;;12.40;10.23;;;2.00;99.90;1.80;101486.00;;;;4997969;27;112074;-65
2023/04/10 05:27:45;;;;;;;21.40;11.90;;;2.10;99.90;1.90;101488.00;;;;5022538;27;83780;-64
2023/04/10 05:30:11;;;;;;;15.97;11.67;;;2.10;99.90;2.00;101490.00;;;;5020830;27;112497;-65
2023/04/10 05:32:37;;;;;;;19.07;9.23;;;2.20;99.90;2.10;101480.00;;;;5020363;27;107639;-64
2023/04/10 05:35:03;;;;;;;14.73;10.23;;;2.40;99.90;2.30;101489.00;;;;5025708;27;111757;-64
2023/04/10 05:37:29;;;;;;;14.67;9.87;;;2.50;99.90;2.50;101481.00;;;;5006873;27;94412;-64
2023/04/10 05:39:54;;;;;;;16.17;10.13;;;2.70;99.90;2.60;101494.00;;;;5019829;27;83240;-64
2023/04/10 05:42:20;;;;;;;17.27;10.10;;;2.80;99.90;2.80;101494.00;;;;5023116;27;83706;-63
2023/04/10 05:44:46;;;;;;;14.80;9.57;;;3.10;99.90;3.00;101501.00;;;;5020773;27;113334;-65
2023/04/10 05:47:11;;;;;;;18.30;8.27;;;3.20;99.90;3.20;101493.00;;;;5023510;27;111327;-66
2023/04/10 05:49:37;;;;;;;10.47;9.03;;;3.40;99.90;3.40;101490.00;;;;5024939;27;83086;-64
2023/04/10 05:52:02;;;;;;;13.67;10.03;;;3.50;99.90;3.60;101486.00;;;;5025046;27;109110;-66
2023/04/10 05:54:28;;;;;;;14.30;8.63;;;3.70;99.90;3.80;101494.00;;;;5023140;27;113513;-66
2023/04/10 05:56:54;;;;;;;12.67;8.23;;;3.90;99.90;3.90;101493.00;;;;5026534;27;114156;-67
2023/04/10 05:59:19;;;;;;;16.10;7.83;;;4.00;99.90;4.20;101487.00;;;;5026863;27;110618;-66
2023/04/10 06:01:46;;;;;;;10.40;6.97;;;4.30;99.90;4.40;101491.00;;;;5025763;27;89665;-64
2023/04/10 06:04:11;;;;;;;11.20;8.03;;;4.50;99.90;4.50;101498.00;;;;5022705;27;84065;-63
2023/04/10 06:06:37;;;;;;;9.70;6.37;;;4.60;99.90;4.60;101497.00;;;;5026166;27;94789;-66
2023/04/10 06:09:03;;;;;;;8.07;5.83;;;5.40;99.90;4.70;101502.00;;;;5024024;27;110082;-65
2023/04/10 06:11:29;;;;;;;11.47;6.73;;;4.80;99.90;4.70;101494.00;;;;5026091;27;81845;-64
2023/04/10 06:13:55;;;;;;;14.27;9.10;;;5.60;99.90;4.70;101507.00;;;;5025082;27;82741;-64
2023/04/10 06:16:20;;;;;;;8.77;6.13;;;4.80;99.90;4.70;101503.00;;;;5022539;27;111451;-64
2023/04/10 06:18:46;;;;;;;10.63;6.30;;;4.90;99.90;4.80;101503.00;;;;5027341;27;110068;-63
2023/04/10 06:21:13;;;;;;;11.20;6.40;;;4.90;99.90;4.80;101496.00;;;;5026370;27;83160;-64
2023/04/10 06:23:39;;;;;;;8.67;6.53;;;5.00;99.90;4.80;101501.00;;;;5028159;27;83341;-63
2023/04/10 06:26:05;;;;;;;9.93;7.53;;;4.90;99.90;4.90;101503.00;;;;5024508;27;82944;-64
2023/04/10 06:28:31;;;;;;;10.27;7.33;;;5.00;99.90;5.00;101504.00;;;;5027545;27;102233;-63
2023/04/10 06:30:57;;;;;;;10.67;7.50;;;5.80;99.90;5.10;101499.00;;;;5027195;27;108851;-63
2023/04/10 06:33:22;;;;;;;10.40;7.23;;;5.90;99.90;5.20;101497.00;;;;5023731;27;83393;-63
2023/04/10 06:35:49;;;;;;;11.77;7.00;;;5.30;99.90;5.30;101496.00;;;;5027501;27;111689;-64
2023/04/10 06:38:15;;;;;;;12.43;8.00;;;6.10;99.90;5.50;101506.00;;;;5024665;27;82651;-64
2023/04/10 06:40:40;;;;;;;10.27;7.03;;;5.60;99.90;5.80;101502.00;;;;5022908;27;83088;-63
2023/04/10 06:43:06;;;;;;;12.27;7.87;;;5.80;99.90;6.00;101497.00;;;;5025072;27;87441;-63
2023/04/10 06:45:38;;;;;;;10.77;8.30;;;6.00;99.90;6.40;101500.00;;;;5025160;27;84510;-63
2023/04/10 06:48:04;;;;;;;8.70;6.73;;;6.80;99.90;6.70;101504.00;;;;4988879;27;82869;-64
2023/04/10 06:50:30;;;;;;;12.20;7.80;;;6.60;99.90;6.90;101510.00;;;;4990429;27;82687;-64
2023/04/10 06:52:58;;;;;;;13.10;8.07;;;6.80;99.90;7.10;101501.00;;;;4986360;27;99873;-63
2023/04/10 06:55:27;;;;;;;9.67;6.57;;;7.10;99.90;7.30;101507.00;;;;4985872;27;82925;-63
2023/04/10 06:57:54;;;;;;;9.30;6.77;;;7.30;99.90;7.60;101497.00;;;;4972761;28;83250;-64
2023/04/10 07:00:20;;;;;;;10.67;7.67;;;7.90;99.90;7.90;101506.00;;;;4985592;27;82172;-64
2023/04/10 07:02:46;;;;;;;10.67;7.13;;;7.80;99.90;8.20;101501.00;;;;4986743;27;83594;-63
2023/04/10 07:05:13;;;;;;;12.43;8.80;;;8.10;99.90;8.50;101498.00;;;;4985327;27;112299;-63
2023/04/10 07:07:38;;;;;;;11.07;7.73;;;8.40;99.90;8.90;101501.00;;;;4986506;27;83938;-66
2023/04/10 07:10:05;;;;;;;14.20;9.53;;;8.80;99.90;9.30;101495.00;;;;4981117;27;108940;-66
2023/04/10 07:12:32;;;;;;;12.17;7.90;;;9.20;99.90;9.60;101499.00;;;;4986288;27;83929;-64
2023/04/10 07:14:57;;;;;;;14.27;8.47;;;9.50;99.90;9.90;101497.00;;;;4987876;27;105079;-66
2023/04/10 07:17:23;;;;;;;12.07;7.40;;;9.80;99.90;10.20;101499.00;;;;4986953;27;110880;-63
2023/04/10 07:19:49;;;;;;;15.73;8.93;;;10.20;99.90;10.60;101501.00;;;;4986541;27;108476;-64
2023/04/10 07:22:15;;;;;;;11.27;7.63;;;10.50;99.90;10.90;101499.00;;;;4985679;27;83201;-64
2023/04/10 07:24:41;;;;;;;9.57;8.13;;;10.90;99.90;11.30;101502.00;;;;4987189;27;83031;-65
2023/04/10 07:27:07;;;;;;;11.73;8.63;;;11.20;99.90;11.70;101494.00;;;;4983904;27;92088;-65
2023/04/10 07:29:32;;;;;;;15.60;8.97;;;11.50;99.90;12.00;101498.00;;;;4985288;27;98935;-66
2023/04/10 07:31:58;;;;;;;14.03;8.87;;;11.90;99.90;12.30;101489.00;;;;4987858;27;106130;-64
2023/04/10 07:34:25;;;;;;;10.17;8.23;;;12.20;99.90;12.60;101491.00;;;;4985852;27;84987;-65
2023/04/10 07:36:51;;;;;;;11.73;8.63;;;12.50;99.90;12.90;101493.00;;;;4984054;27;109708;-65
2023/04/10 07:39:17;;;;;;;13.63;8.80;;;12.80;99.90;13.00;101486.00;;;;4984866;27;84717;-65
2023/04/10 07:41:43;;;;;;;12.40;9.60;;;12.90;99.90;13.20;101497.00;;;;4986408;27;83253;-64
2023/04/10 07:44:08;;;;;;;14.93;8.23;;;13.20;99.90;13.50;101496.00;;;;4984098;27;83150;-65
2023/04/10 07:46:37;;;;;;;12.93;8.87;;;13.40;99.90;13.80;101499.00;;;;4985089;27;110519;-64
2023/04/10 07:49:03;;;;;;;13.83;8.53;;;13.70;99.90;14.10;101489.00;;;;4989877;27;82247;-64
2023/04/10 07:51:29;;;;;;;15.83;8.63;;;14.00;99.90;14.30;101489.00;;;;4983547;27;112902;-64
2023/04/10 07:53:55;;;;;;;13.45;7.40;;;14.20;99.90;14.60;101488.00;;;;4988824;27;83557;-65
2023/04/10 07:56:22;;;;;;;8.82;6.20;;;14.50;99.90;14.80;101499.00;;;;4985115;27;83979;-65
2023/04/10 07:58:49;;;;;;;14.38;9.68;;;14.70;99.90;15.00;101498.00;;;;4988651;27;83146;-64
2023/04/10 08:01:15;;;;;;;11.88;8.45;;;14.90;99.90;15.10;101488.00;;;;4985149;27;105779;-64
2023/04/10 08:03:44;;;;;;;12.98;7.82;;;14.90;99.90;15.30;101498.00;;;;4984191;27;111652;-65
2023/04/10 08:06:10;;;;;;;14.52;7.30;;;15.20;99.90;15.40;101495.00;;;;4984218;27;82770;-64
2023/04/10 08:08:41;;;;;;;11.02;8.07;;;15.40;99.90;15.70;101492.00;;;;4984790;27;84158;-64
2023/04/10 08:11:31;;;;;;;12.40;7.78;;;15.60;99.90;15.90;101494.00;;;;4985308;27;82993;-65
2023/04/10 08:14:00;;;;;;;14.40;7.82;;;15.80;99.90;16.10;101492.00;;;;4989280;27;83224;-65
2023/04/10 08:16:32;;;;;;;9.95;7.35;;;16.10;99.90;16.40;101491.00;;;;4984170;27;83593;-65
2023/04/10 08:18:59;;;;;;;14.02;8.07;;;16.30;99.90;16.70;101493.00;;;;4987629;27;82766;-65
2023/04/10 08:21:26;;;;;;;13.50;7.60;;;16.50;99.90;16.90;101490.00;;;;4982384;27;100515;-65
2023/04/10 08:23:54;;;;;;;11.13;7.22;;;16.80;99.90;17.10;101483.00;;;;4987781;27;84124;-64
2023/04/10 08:26:20;;;;;;;13.38;7.95;;;16.90;99.80;17.30;101494.00;;;;4983157;28;82851;-64
2023/04/10 08:28:51;;;;;;;13.63;7.68;;;17.20;99.30;17.50;101488.00;;;;4985964;27;101272;-63
2023/04/10 08:31:18;;;;;;;13.75;8.27;;;17.40;98.20;17.70;101479.00;;;;4984561;27;83936;-65
2023/04/10 08:33:44;;;;;;;11.18;7.68;;;17.60;97.10;17.90;101474.00;;;;4985604;27;83839;-64
2023/04/10 08:36:11;;;;;;;13.80;7.40;;;17.80;96.80;18.00;101482.00;;;;4987550;27;82847;-64
2023/04/10 08:38:38;;;;;;;10.77;7.47;;;17.90;94.20;18.10;101472.00;;;;4984613;27;82063;-64
2023/04/10 08:41:05;;;;;;;12.75;7.95;;;18.00;93.50;18.20;101468.00;;;;4984878;27;83699;-64
2023/04/10 08:43:31;;;;;;;13.77;7.95;;;18.10;92.70;18.40;101474.00;;;;4982965;27;97037;-65
2023/04/10 08:45:58;;;;;;;12.18;8.00;;;18.20;92.90;18.60;101461.00;;;;4984876;27;83507;-64
2023/04/10 08:48:33;;;;;;;12.65;8.02;;;18.40;92.20;18.80;101473.00;;;;4983010;27;108609;-65
2023/04/10 08:51:02;;;;;;;13.60;7.25;;;18.60;90.00;18.80;101466.00;;;;4968095;28;100570;-65
2023/04/10 08:53:31;;;;;;;19.10;9.25;;;18.60;89.00;18.90;101463.00;;;;4968402;28;105051;-65
2023/04/10 08:55:57;;;;;;;10.70;6.90;;;18.80;87.50;19.00;101461.00;;;;4987228;27;109932;-65
2023/04/10 08:58:27;;;;;;;11.05;7.82;;;18.90;87.10;19.20;101459.00;;;;4972909;28;108215;-66
2023/04/10 09:00:53;;;;;;;11.70;7.25;;;19.00;84.70;19.40;101456.00;;;;4970795;27;112988;-65
2023/04/10 09:03:19;;;;;;;11.40;7.30;;;19.20;84.50;19.60;101458.00;;;;4985144;27;113791;-66
2023/04/10 09:05:45;;;;;;;10.07;6.72;;;19.30;82.30;19.70;101464.00;;;;4985144;27;82874;-66
2023/04/10 09:08:12;;;;;;;14.43;7.72;;;19.50;81.70;19.90;101451.00;;;;4982095;27;82929;-64
2023/04/10 09:10:38;;;;;;;10.02;6.38;;;19.70;81.30;20.10;101448.00;;;;4982656;27;83817;-65
2023/04/10 09:13:03;;;;;;;8.75;6.43;;;19.80;81.40;20.40;101445.00;;;;4981636;27;83928;-66
2023/04/10 09:15:29;;;;;;;9.88;6.10;;;20.10;81.00;20.60;101439.00;;;;4985668;27;90632;-66
2023/04/10 09:17:58;;;;;;;11.10;6.88;;;20.30;79.30;20.80;101441.00;;;;4971000;28;82838;-65
2023/04/10 09:20:27;;;;;;;9.07;6.20;;;20.50;77.90;20.90;101436.00;;;;4985257;27;83087;-66
2023/04/10 09:22:53;;;;;;;8.52;6.35;;;20.70;76.90;21.10;101446.00;;;;4986985;27;84357;-64
2023/04/10 09:25:33;;;;;;;8.02;6.15;;;20.80;75.20;21.20;101434.00;;;;4986321;27;82664;-66
2023/04/10 09:28:07;;;;;;;9.30;4.97;;;21.00;68.00;21.20;101439.00;;;;4965134;28;82401;-64
2023/04/10 09:30:39;;;;;;;8.38;6.43;;;20.90;65.20;21.20;101432.00;;;;4990137;27;84198;-64
2023/04/10 09:33:26;;;;;;;11.10;5.88;;;21.00;65.90;21.40;101435.00;;;;4971601;28;83131;-64
2023/04/10 09:35:53;;;;;;;9.13;5.63;;;21.10;66.30;21.70;101438.00;;;;4989642;27;83866;-64
2023/04/10 09:38:22;;;;;;;7.20;4.43;;;21.30;66.10;21.80;101434.00;;;;4990355;27;89094;-63
2023/04/10 09:40:48;;;;;;;15.23;6.03;;;21.50;61.90;22.00;101433.00;;;;4988960;27;84182;-64
2023/04/10 09:43:25;;;;;;;7.07;4.82;;;21.60;59.20;21.70;101427.00;;;;4986104;27;96952;-65
2023/04/10 09:45:55;;;;;;;9.20;5.47;;;21.50;55.40;21.50;101416.00;;;;4987724;27;82702;-65
2023/04/10 09:48:22;;;;;;;8.05;4.32;;;21.20;56.20;21.40;101419.00;;;;4990891;27;82734;-66
2023/04/10 09:50:48;;;;;;;9.55;5.07;;;21.10;56.90;21.40;101417.00;;;;4985087;27;82760;-66
2023/04/10 09:53:18;;;;;;;7.55;5.00;;;21.00;57.10;21.60;101411.00;;;;4988295;27;82061;-66
2023/04/10 09:55:48;;;;;;;10.82;6.40;;;21.10;57.70;21.90;101402.00;;;;4990014;27;82839;-65
2023/04/10 09:58:15;;;;;;;5.43;4.90;;;21.40;57.40;22.20;101413.00;;;;4988631;27;91967;-65
2023/04/10 10:00:46;;;;;;;7.72;4.13;;;21.60;56.20;22.20;101397.00;;;;4985403;27;84568;-65
2023/04/10 10:03:17;;;;;;;5.18;3.97;;;21.80;53.30;22.20;101399.00;;;;4987483;27;83755;-65
2023/04/10 10:05:52;;;;;;;7.68;4.53;;;21.70;54.00;22.20;101390.00;;;;4990599;27;82997;-65
2023/04/10 10:08:25;;;;;;;4.75;4.18;;;21.70;53.50;22.50;101385.00;;;;4990614;27;109539;-66
2023/04/10 10:10:56;;;;;;;7.97;4.60;;;21.90;54.60;22.80;101394.00;;;;4991012;27;83322;-64
2023/04/10 10:13:40;;;;;;;7.32;5.10;;;22.20;55.20;23.10;101381.00;;;;4970884;27;83705;-65
2023/04/10 10:16:35;;;;;;;9.30;5.00;;;22.50;54.30;23.50;101391.00;;;;4970635;28;82970;-64
2023/04/10 10:19:13;;;;;;;6.63;4.82;;;22.80;54.50;23.70;101380.00;;;;4988051;27;82197;-64
2023/04/10 10:21:43;;;;;;;8.80;5.22;;;23.10;53.10;23.60;101368.00;;;;4987241;27;83214;-66
2023/04/10 10:24:09;;;;;;;9.75;5.03;;;23.10;50.50;23.60;101371.00;;;;4986305;27;104418;-63
2023/04/10 10:26:38;;;;;;;6.53;4.80;;;23.00;51.80;23.70;101357.00;;;;4969722;27;84029;-64
2023/04/10 10:29:09;;;;;;;5.32;4.35;;;23.20;52.50;24.10;101363.00;;;;4987473;27;84765;-67
2023/04/10 10:31:38;;;;;;;5.40;3.67;;;23.40;52.60;24.50;101362.00;;;;4978896;27;83066;-66
2023/04/10 10:34:07;;;;;;;5.32;3.65;;;23.70;52.50;24.60;101357.00;;;;4971550;28;82905;-67
2023/04/10 10:36:45;;;;;;;17.95;5.22;;;24.00;48.10;24.50;101350.00;;;;4988833;27;82987;-69
2023/04/10 10:39:32;;;;;;;6.50;3.72;;;24.00;45.90;24.10;101341.00;;;;4985768;27;108807;-68
2023/04/10 10:42:32;;;;;;;7.03;4.45;;;23.70;45.20;23.60;101331.00;;;;5000309;27;83245;-67
2023/04/10 10:45:21;;;;;;;8.00;4.53;;;23.40;45.20;22.80;101334.00;;;;4971092;28;82351;-67
2023/04/10 10:47:52;;;;;;;9.45;3.83;;;22.80;44.70;22.20;101347.00;;;;4985727;27;82819;-67
2023/04/10 10:50:19;;;;;;;6.35;4.75;;;22.20;46.10;21.80;101334.00;;;;4997658;27;82976;-67
2023/04/10 10:52:51;;;;;;;5.45;3.95;;;21.70;46.70;21.40;101324.00;;;;4988602;27;84940;-66